createdAt,value
2024-02-06T00:02:55.232Z,46.19
2024-02-06T00:06:56.865Z,45.07
2024-02-06T00:10:58.764Z,45.33
2024-02-06T00:15:00.280Z,45.45
2024-02-06T00:19:02.997Z,45.03
2024-02-06T00:23:04.665Z,44.10
2024-02-06T00:27:06.122Z,44.05
2024-02-06T00:31:07.705Z,43.90
2024-02-06T00:35:09.547Z,44.44
2024-02-06T00:39:11.125Z,44.44
2024-02-06T00:43:13.225Z,43.52
2024-02-06T00:47:16.144Z,45.04
2024-02-06T00:51:17.706Z,43.64
2024-02-06T00:55:19.842Z,43.87
2024-02-06T00:59:23.067Z,42.62
2024-02-06T01:03:24.973Z,43.39
2024-02-06T01:07:27.447Z,42.67
2024-02-06T01:11:32.959Z,43.47
2024-02-06T01:15:34.917Z,43.70
2024-02-06T01:19:36.648Z,44.38
2024-02-06T01:23:38.558Z,43.93
2024-02-06T01:27:40.149Z,44.33
2024-02-06T01:31:42.869Z,43.56
2024-02-06T01:35:44.289Z,44.37
2024-02-06T01:39:46.934Z,44.88
2024-02-06T01:43:48.386Z,44.47
2024-02-06T01:47:50.021Z,43.91
2024-02-06T01:51:52.376Z,44.78
2024-02-06T01:55:54.413Z,43.21
2024-02-06T01:59:56.301Z,44.68
2024-02-06T02:03:58.672Z,43.87
2024-02-06T02:08:00.703Z,43.78
2024-02-06T02:12:02.470Z,44.99
2024-02-06T02:16:05.475Z,43.65
2024-02-06T02:20:08.009Z,43.98
2024-02-06T02:24:09.625Z,42.56
2024-02-06T02:28:11.546Z,43.57
2024-02-06T02:32:14.733Z,43.51
2024-02-06T02:36:17.049Z,42.68
2024-02-06T02:40:19.061Z,41.67
2024-02-06T02:44:20.857Z,42.15
2024-02-06T02:48:22.550Z,41.62
2024-02-06T02:52:24.503Z,42.39
2024-02-06T02:56:26.557Z,41.52
2024-02-06T03:00:28.276Z,41.66
2024-02-06T03:04:30.290Z,42.86
2024-02-06T03:08:31.933Z,42.51
2024-02-06T03:12:34.725Z,42.09
2024-02-06T03:16:36.468Z,41.68
2024-02-06T03:20:38.070Z,41.65
2024-02-06T03:24:40.061Z,41.20
2024-02-06T03:28:41.598Z,41.09
2024-02-06T03:32:44.079Z,42.28
2024-02-06T03:36:45.825Z,41.19
2024-02-06T03:40:50.032Z,41.53
2024-02-06T03:44:51.494Z,40.66
2024-02-06T03:48:55.237Z,41.12
2024-02-06T03:52:57.351Z,41.56
2024-02-06T03:56:58.887Z,41.61
2024-02-06T04:01:00.956Z,40.74
2024-02-06T04:05:07.082Z,41.04
2024-02-06T04:09:10.811Z,41.81
2024-02-06T04:13:12.538Z,41.61
2024-02-06T04:17:14.210Z,41.14
2024-02-06T04:21:15.857Z,41.98
2024-02-06T04:25:18.346Z,42.09
2024-02-06T04:29:20.525Z,41.95
2024-02-06T04:33:23.927Z,41.86
2024-02-06T04:37:25.861Z,41.84
2024-02-06T04:41:27.464Z,42.61
2024-02-06T04:45:29.204Z,42.38
2024-02-06T04:49:31.024Z,41.70
2024-02-06T04:53:33.079Z,42.14
2024-02-06T04:57:35.289Z,42.11
2024-02-06T05:01:37.996Z,42.89
2024-02-06T05:05:39.608Z,41.71
2024-02-06T05:09:41.322Z,42.34
2024-02-06T05:13:44.019Z,41.63
2024-02-06T05:17:46.145Z,41.25
2024-02-06T05:21:48.424Z,41.48
2024-02-06T05:25:49.866Z,42.18
2024-02-06T05:29:51.827Z,42.06
2024-02-06T05:33:53.328Z,42.65
2024-02-06T05:37:54.945Z,42.67
2024-02-06T05:41:56.786Z,42.85
2024-02-06T05:45:58.317Z,42.38
2024-02-06T05:50:00.620Z,42.87
2024-02-06T05:54:02.356Z,41.93
2024-02-06T05:58:05.121Z,43.07
2024-02-06T06:02:06.950Z,41.94
2024-02-06T06:06:10.285Z,42.89
2024-02-06T06:10:16.375Z,43.68
2024-02-06T06:14:19.133Z,43.39
2024-02-06T06:18:20.827Z,43.29
2024-02-06T06:22:22.643Z,42.72
2024-02-06T06:26:24.109Z,43.74
2024-02-06T06:30:27.062Z,42.45
2024-02-06T06:34:31.338Z,44.02
2024-02-06T06:38:33.076Z,43.22
2024-02-06T06:42:36.441Z,42.60
2024-02-06T06:46:38.733Z,42.93
2024-02-06T06:50:40.527Z,42.38
2024-02-06T06:54:45.096Z,43.31
2024-02-06T06:58:47.306Z,43.11
2024-02-06T07:02:49.117Z,43.47
2024-02-06T07:06:50.531Z,43.96
2024-02-06T07:10:52.574Z,42.88
2024-02-06T07:14:54.319Z,43.38
2024-02-06T07:18:55.967Z,42.63
2024-02-06T07:22:57.632Z,43.66
2024-02-06T07:27:02.058Z,42.93
2024-02-06T07:31:04.040Z,44.33
2024-02-06T07:35:05.808Z,43.12
2024-02-06T07:39:09.400Z,43.51
2024-02-06T07:43:11.506Z,43.49
2024-02-06T07:47:12.950Z,42.85
2024-02-06T07:51:15.307Z,43.31
2024-02-06T07:55:17.440Z,42.59
2024-02-06T07:59:18.968Z,42.42
2024-02-06T08:03:20.418Z,42.54
2024-02-06T08:07:22.062Z,43.54
2024-02-06T08:11:26.562Z,43.70
2024-02-06T08:15:28.633Z,44.28
2024-02-06T08:19:32.154Z,43.08
2024-02-06T08:23:34.185Z,42.69
2024-02-06T08:27:36.171Z,42.90
2024-02-06T08:31:37.958Z,43.13
2024-02-06T08:35:40.378Z,43.28
2024-02-06T08:39:46.484Z,43.07
2024-02-06T08:43:53.189Z,42.69
2024-02-06T08:47:57.965Z,42.17
2024-02-06T08:51:59.921Z,43.25
2024-02-06T08:56:03.799Z,43.61
2024-02-06T09:00:09.367Z,43.07
2024-02-06T09:04:12.496Z,42.68
2024-02-06T09:08:15.853Z,42.70
2024-02-06T09:12:24.091Z,42.07
2024-02-06T09:16:27.192Z,42.20
2024-02-06T09:20:29.646Z,42.13
2024-02-06T09:24:33.317Z,42.16
2024-02-06T09:28:35.290Z,42.38
2024-02-06T09:32:37.041Z,42.48
2024-02-06T09:36:39.886Z,42.41
2024-02-06T09:40:44.278Z,42.42
2024-02-06T09:44:46.292Z,43.49
2024-02-06T09:48:47.848Z,43.10
2024-02-06T09:52:51.499Z,42.92
2024-02-06T09:56:54.674Z,42.65
2024-02-06T10:00:57.594Z,42.95
2024-02-06T10:05:01.515Z,44.35
2024-02-06T10:09:06.485Z,44.24
2024-02-06T10:13:08.513Z,43.27
2024-02-06T10:17:12.576Z,43.05
2024-02-06T10:21:20.922Z,43.84
2024-02-06T10:25:22.611Z,43.99
2024-02-06T10:29:24.781Z,42.98
2024-02-06T10:33:31.034Z,42.95
2024-02-06T10:37:37.531Z,43.51
2024-02-06T10:42:00.287Z,43.00
2024-02-06T10:46:03.276Z,43.06
2024-02-06T10:50:06.593Z,43.12
2024-02-06T10:54:11.696Z,42.66
2024-02-06T10:58:19.256Z,43.51
2024-02-06T11:02:30.687Z,43.89
2024-02-06T11:06:54.009Z,42.93
2024-02-06T11:10:57.598Z,42.60
2024-02-06T11:15:03.232Z,41.81
2024-02-06T11:19:23.515Z,42.67
2024-02-06T11:23:26.578Z,42.88
2024-02-06T11:27:33.060Z,41.89
2024-02-06T11:31:39.042Z,41.24
2024-02-06T11:35:42.251Z,40.94
2024-02-06T11:39:44.759Z,40.90
2024-02-06T11:43:48.834Z,41.13
2024-02-06T11:47:58.344Z,41.80
2024-02-06T11:52:00.013Z,41.81
2024-02-06T11:56:04.862Z,41.91
2024-02-06T12:00:11.468Z,42.65
2024-02-06T12:04:22.020Z,41.87
2024-02-06T12:08:27.599Z,43.16
2024-02-06T12:12:30.853Z,41.94
2024-02-06T12:16:35.484Z,41.21
2024-02-06T12:20:37.381Z,41.52
2024-02-06T12:24:38.926Z,41.21
2024-02-06T12:33:02.506Z,41.51
2024-02-06T12:37:07.379Z,42.09
2024-02-06T12:41:10.545Z,41.55
2024-02-06T12:45:13.516Z,40.86
2024-02-06T12:49:15.842Z,39.31
2024-02-06T12:53:27.321Z,40.23
2024-02-06T12:57:32.222Z,39.33
2024-02-06T13:01:33.812Z,40.07
2024-02-06T13:05:36.725Z,39.48
2024-02-06T13:09:49.461Z,39.59
2024-02-06T13:14:07.831Z,38.92
2024-02-06T13:18:09.907Z,38.73
2024-02-06T13:22:11.726Z,40.28
2024-02-06T13:26:13.836Z,40.94
2024-02-06T13:30:17.892Z,40.00
2024-02-06T13:34:19.476Z,39.54
2024-02-06T13:38:21.268Z,39.67
2024-02-06T13:42:27.269Z,40.62
2024-02-06T13:46:29.697Z,41.57
2024-02-06T13:50:33.111Z,40.69
2024-02-06T13:54:37.902Z,40.80
2024-02-06T13:58:44.114Z,40.80
2024-02-06T14:02:47.801Z,41.32
2024-02-06T14:06:49.719Z,42.62
2024-02-06T14:10:56.986Z,41.13
2024-02-06T14:14:58.807Z,41.64
2024-02-06T14:19:05.933Z,41.52
2024-02-06T14:23:08.433Z,41.23
2024-02-06T14:27:09.943Z,41.14
2024-02-06T14:31:12.779Z,41.65
2024-02-06T14:35:14.852Z,41.56
2024-02-06T14:39:16.648Z,41.72
2024-02-06T14:43:19.818Z,40.52
2024-02-06T14:47:21.861Z,41.41
2024-02-06T14:51:27.301Z,40.38
2024-02-06T14:55:30.909Z,41.08
2024-02-06T14:59:36.984Z,40.50
2024-02-06T15:03:41.578Z,40.12
2024-02-06T15:07:44.937Z,40.29
2024-02-06T15:11:47.070Z,41.08
2024-02-06T15:15:48.559Z,40.07
2024-02-06T15:19:51.481Z,40.71
2024-02-06T15:23:53.701Z,41.24
2024-02-06T15:27:56.121Z,41.77
2024-02-06T15:31:58.234Z,40.85
2024-02-06T15:36:01.432Z,41.34
2024-02-06T15:40:03.584Z,40.38
2024-02-06T15:44:06.262Z,42.53
2024-02-06T15:48:07.964Z,41.63
2024-02-06T15:52:09.635Z,41.64
2024-02-06T15:56:13.128Z,41.78
2024-02-06T16:00:16.807Z,41.43
2024-02-06T16:04:18.576Z,40.93
2024-02-06T16:08:21.635Z,41.72
2024-02-06T16:12:26.229Z,41.60
2024-02-06T16:16:34.801Z,41.83
2024-02-06T16:20:36.890Z,42.95
2024-02-06T16:24:38.421Z,42.78
2024-02-06T16:28:39.929Z,42.82
2024-02-06T16:32:41.442Z,44.06
2024-02-06T16:36:44.152Z,43.34
2024-02-06T16:40:45.668Z,44.69
2024-02-06T16:44:47.362Z,46.23
2024-02-06T16:48:48.943Z,45.01
2024-02-06T16:52:55.572Z,46.68
2024-02-06T16:56:58.208Z,45.22
2024-02-06T17:01:00.421Z,46.06
2024-02-06T17:05:02.997Z,45.42
2024-02-06T17:09:05.208Z,45.51
2024-02-06T17:13:06.872Z,44.87
2024-02-06T17:17:11.506Z,44.28
2024-02-06T17:21:14.056Z,44.57
2024-02-06T17:25:17.805Z,43.32
2024-02-06T17:29:19.381Z,44.25
2024-02-06T17:33:21.110Z,43.63
2024-02-06T17:37:22.707Z,44.09
2024-02-06T17:41:24.556Z,44.43
2024-02-06T17:45:26.942Z,43.55
2024-02-06T17:49:31.549Z,43.33
2024-02-06T17:53:33.321Z,42.20
2024-02-06T17:57:41.537Z,43.57
2024-02-06T18:01:46.774Z,43.46
2024-02-06T18:05:48.546Z,42.58
2024-02-06T18:09:50.346Z,43.00
2024-02-06T18:13:51.944Z,44.02
2024-02-06T18:17:53.837Z,43.87
2024-02-06T18:21:55.606Z,44.98
2024-02-06T18:26:00.761Z,44.19
2024-02-06T18:30:02.767Z,43.39
2024-02-06T18:34:05.075Z,43.18
2024-02-06T18:38:06.971Z,44.46
2024-02-06T18:42:16.345Z,44.47
2024-02-06T18:46:18.998Z,45.55
2024-02-06T18:50:24.039Z,44.46
2024-02-06T18:54:26.660Z,43.41
2024-02-06T19:02:55.347Z,43.71
2024-02-06T19:06:58.348Z,44.39
2024-02-06T19:11:00.243Z,44.72
2024-02-06T19:15:04.290Z,44.89
2024-02-06T19:19:08.472Z,45.00
2024-02-06T19:23:12.376Z,44.93
2024-02-06T19:27:14.347Z,43.67
2024-02-06T19:31:16.583Z,44.59
2024-02-06T19:35:18.462Z,44.67
2024-02-06T19:39:25.507Z,44.11
2024-02-06T19:43:27.189Z,43.16
2024-02-06T19:47:28.629Z,43.71
2024-02-06T19:51:30.609Z,44.22
2024-02-06T19:55:33.122Z,44.36
2024-02-06T19:59:35.147Z,43.44
2024-02-06T20:03:36.914Z,43.97
2024-02-06T20:07:38.469Z,44.22
2024-02-06T20:11:43.784Z,43.95
2024-02-06T20:15:47.121Z,44.22
2024-02-06T20:19:49.646Z,44.18
2024-02-06T20:23:51.734Z,43.71
2024-02-06T20:27:53.216Z,44.03
2024-02-06T20:31:58.192Z,43.76
2024-02-06T20:36:05.663Z,42.98
2024-02-06T20:40:09.811Z,42.35
2024-02-06T20:44:11.613Z,43.07
2024-02-06T20:48:13.463Z,43.00
2024-02-06T20:52:15.438Z,42.05
2024-02-06T20:56:17.233Z,41.88
2024-02-06T21:00:19.610Z,41.69
2024-02-06T21:04:25.252Z,41.77
2024-02-06T21:08:27.323Z,42.88
2024-02-06T21:12:28.776Z,41.62
2024-02-06T21:16:30.590Z,40.83
2024-02-06T21:20:32.511Z,42.09
2024-02-06T21:24:34.238Z,41.71
2024-02-06T21:28:35.850Z,41.41
2024-02-06T21:32:39.635Z,41.21
2024-02-06T21:36:43.585Z,41.15
2024-02-06T21:40:45.194Z,40.34
2024-02-06T21:44:48.013Z,41.43
2024-02-06T21:48:49.473Z,40.99
2024-02-06T21:52:50.999Z,41.15
2024-02-06T21:56:52.671Z,41.53
2024-02-06T22:00:55.495Z,40.68
2024-02-06T22:04:57.222Z,41.88
2024-02-06T22:08:58.839Z,40.99
2024-02-06T22:13:00.491Z,40.96
2024-02-06T22:17:05.269Z,40.54
2024-02-06T22:21:06.950Z,41.12
2024-02-06T22:25:08.980Z,40.95
2024-02-06T22:29:10.788Z,41.20
2024-02-06T22:33:12.595Z,40.62
2024-02-06T22:37:14.165Z,40.65
2024-02-06T22:41:15.649Z,40.41
2024-02-06T22:45:17.684Z,40.65
2024-02-06T22:49:19.553Z,40.23
2024-02-06T22:53:22.921Z,40.95
2024-02-06T22:57:25.692Z,41.11
2024-02-06T23:01:30.065Z,43.11
2024-02-06T23:05:31.929Z,43.29
2024-02-06T23:09:33.998Z,43.96
2024-02-06T23:13:36.651Z,43.98
2024-02-06T23:17:38.809Z,43.93
2024-02-06T23:21:43.550Z,43.23
2024-02-06T23:25:45.621Z,44.39
2024-02-06T23:29:47.426Z,43.29
2024-02-06T23:33:49.181Z,44.37
2024-02-06T23:37:50.912Z,44.05
2024-02-06T23:41:54.877Z,43.66
2024-02-06T23:45:57.394Z,43.43
2024-02-06T23:50:01.797Z,43.40
2024-02-06T23:54:03.443Z,45.26
2024-02-06T23:58:05.468Z,45.68
